createdAt,value
2018-12-17T00:00:25.834Z,95368.91
2018-12-17T00:02:55.851Z,95370.51
2018-12-17T00:05:25.844Z,95368.31
2018-12-17T00:07:55.740Z,95371.75
2018-12-17T00:10:25.754Z,95371.34
2018-12-17T00:12:55.640Z,95372.15
2018-12-17T00:15:25.633Z,95378.55
2018-12-17T00:17:55.777Z,95378.91
2018-12-17T00:20:26.339Z,95383.98
2018-12-17T00:22:56.236Z,95390.38
2018-12-17T00:25:26.123Z,95392.94
2018-12-17T00:27:56.013Z,95392.09
2018-12-17T00:30:25.993Z,95396.86
2018-12-17T00:32:55.877Z,95395.18
2018-12-17T00:35:25.867Z,95399.05
2018-12-17T00:37:55.750Z,95400.21
2018-12-17T00:40:26.545Z,95400.61
2018-12-17T00:42:56.671Z,95396.34
2018-12-17T00:45:26.553Z,95395.89
2018-12-17T00:47:56.471Z,95392.02
2018-12-17T00:50:26.490Z,95391.58
2018-12-17T00:52:56.411Z,95383.02
2018-12-17T00:55:26.377Z,95389.86
2018-12-17T00:57:56.286Z,95380.06
2018-12-17T01:00:26.256Z,95378.38
2018-12-17T01:02:56.244Z,95386.55
2018-12-17T01:05:26.201Z,95379.66
2018-12-17T01:07:56.179Z,95386.09
2018-12-17T01:10:26.619Z,95388.22
2018-12-17T01:12:56.490Z,95387.34
2018-12-17T01:15:26.349Z,95388.18
2018-12-17T01:17:56.263Z,95390.26
2018-12-17T01:20:27.108Z,95396.16
2018-12-17T01:22:57.069Z,95396.21
2018-12-17T01:25:26.948Z,95395.38
2018-12-17T01:27:56.862Z,95395.33
2018-12-17T01:30:26.741Z,95396.16
2018-12-17T01:32:56.835Z,95400.80
2018-12-17T01:35:26.686Z,95407.59
2018-12-17T01:37:56.592Z,95407.50
2018-12-17T01:40:26.708Z,95414.38
2018-12-17T01:42:56.659Z,95413.50
2018-12-17T01:45:26.574Z,95419.41
2018-12-17T01:47:56.486Z,95417.50
2018-12-17T01:50:26.584Z,95417.80
2018-12-17T01:52:56.457Z,95416.56
2018-12-17T01:55:26.347Z,95420.89
2018-12-17T01:57:56.397Z,95420.94
2018-12-17T02:00:26.329Z,95421.38
2018-12-17T02:02:56.324Z,95410.76
2018-12-17T02:05:26.822Z,95413.52
2018-12-17T02:07:56.721Z,95420.84
2018-12-17T02:10:33.397Z,95424.28
2018-12-17T02:13:03.308Z,95429.89
2018-12-17T02:15:33.166Z,95438.14
2018-12-17T02:18:03.057Z,95436.52
2018-12-17T02:20:32.913Z,95434.87
2018-12-17T02:23:02.808Z,95437.00
2018-12-17T02:25:32.726Z,95434.09
2018-12-17T02:28:02.607Z,95447.02
2018-12-17T02:30:32.510Z,95444.50
2018-12-17T02:33:02.407Z,95444.94
2018-12-17T02:35:32.755Z,95453.98
2018-12-17T02:38:02.678Z,95451.47
2018-12-17T02:40:32.677Z,95460.47
2018-12-17T02:43:02.526Z,95460.42
2018-12-17T02:45:32.433Z,95458.53
2018-12-17T02:48:02.318Z,95455.12
2018-12-17T02:50:32.193Z,95459.86
2018-12-17T02:53:02.094Z,95465.63
2018-12-17T02:55:31.993Z,95463.63
2018-12-17T02:58:01.974Z,95470.75
2018-12-17T03:00:31.853Z,95470.65
2018-12-17T03:03:01.765Z,95478.95
2018-12-17T03:05:31.757Z,95477.33
2018-12-17T03:08:01.631Z,95484.34
2018-12-17T03:10:31.494Z,95488.62
2018-12-17T03:13:01.385Z,95493.34
2018-12-17T03:15:31.783Z,95485.95
2018-12-17T03:18:01.732Z,95492.27
2018-12-17T03:20:31.573Z,95494.72
2018-12-17T03:23:01.484Z,95497.52
2018-12-17T03:25:31.369Z,95498.43
2018-12-17T03:28:01.251Z,95504.47
2018-12-17T03:30:31.193Z,95508.77
2018-12-17T03:33:01.039Z,95497.91
2018-12-17T03:35:30.951Z,95506.73
2018-12-17T03:38:00.835Z,95521.59
2018-12-17T03:40:30.740Z,95521.28
2018-12-17T03:43:00.662Z,95520.05
2018-12-17T03:45:30.704Z,95520.06
2018-12-17T03:48:00.644Z,95522.55
2018-12-17T03:50:30.518Z,95523.87
2018-12-17T03:53:00.456Z,95521.49
2018-12-17T03:55:30.350Z,95526.27
2018-12-17T03:58:00.251Z,95526.27
2018-12-17T04:00:30.150Z,95530.66
2018-12-17T04:03:00.071Z,95532.84
2018-12-17T04:05:29.978Z,95534.72
2018-12-17T04:07:59.898Z,95541.55
2018-12-17T04:10:29.758Z,95536.56
2018-12-17T04:12:59.653Z,95534.17
2018-12-17T04:15:29.562Z,95536.86
2018-12-17T04:17:59.506Z,95540.51
2018-12-17T04:20:29.383Z,95548.67
2018-12-17T04:22:59.396Z,95549.89
2018-12-17T04:25:29.299Z,95552.12
2018-12-17T04:27:59.182Z,95564.95
2018-12-17T04:30:29.070Z,95565.34
2018-12-17T04:32:58.961Z,95576.02
2018-12-17T04:35:28.844Z,95582.47
2018-12-17T04:37:58.742Z,95570.63
2018-12-17T04:40:28.632Z,95578.41
2018-12-17T04:42:58.534Z,95575.80
2018-12-17T04:45:28.408Z,95580.42
2018-12-17T04:47:58.632Z,95577.56
2018-12-17T04:50:28.538Z,95583.02
2018-12-17T04:52:58.408Z,95586.42
2018-12-17T04:55:28.306Z,95587.02
2018-12-17T04:57:58.546Z,95595.63
2018-12-17T05:00:28.410Z,95592.23
2018-12-17T05:02:58.288Z,95587.63
2018-12-17T05:05:28.172Z,95591.78
2018-12-17T05:07:58.066Z,95600.59
2018-12-17T05:10:27.960Z,95606.14
2018-12-17T05:12:57.844Z,95610.33
2018-12-17T05:15:27.832Z,95618.83
2018-12-17T05:17:57.758Z,95617.55
2018-12-17T05:20:27.641Z,95630.28
2018-12-17T05:22:57.540Z,95635.45
2018-12-17T05:25:27.418Z,95635.44
2018-12-17T05:27:57.283Z,95638.55
2018-12-17T05:30:27.166Z,95638.72
2018-12-17T05:32:57.116Z,95652.73
2018-12-17T05:35:27.952Z,95649.41
2018-12-17T05:37:58.178Z,95654.09
2018-12-17T05:40:28.052Z,95662.92
2018-12-17T05:42:57.930Z,95668.67
2018-12-17T05:45:27.801Z,95671.49
2018-12-17T05:47:57.716Z,95666.89
2018-12-17T05:50:27.732Z,95671.86
2018-12-17T05:52:57.627Z,95674.54
2018-12-17T05:55:27.478Z,95677.93
2018-12-17T05:57:57.363Z,95677.22
2018-12-17T06:00:27.846Z,95684.83
2018-12-17T06:02:57.707Z,95684.31
2018-12-17T06:05:27.569Z,95689.11
2018-12-17T06:07:57.450Z,95693.00
2018-12-17T06:10:27.434Z,95699.53
2018-12-17T06:12:57.316Z,95698.31
2018-12-17T06:15:27.152Z,95701.77
2018-12-17T06:17:57.032Z,95696.33
2018-12-17T06:20:26.923Z,95708.77
2018-12-17T06:22:56.811Z,95716.51
2018-12-17T06:25:26.684Z,95710.05
2018-12-17T06:27:56.549Z,95708.28
2018-12-17T06:30:26.450Z,95718.55
2018-12-17T06:32:56.304Z,95720.22
2018-12-17T06:35:26.484Z,95723.13
2018-12-17T06:37:56.361Z,95728.52
2018-12-17T06:40:26.311Z,95732.22
2018-12-17T06:42:56.164Z,95736.14
2018-12-17T06:45:26.137Z,95739.68
2018-12-17T06:47:55.988Z,95744.70
2018-12-17T06:50:26.120Z,95749.03
2018-12-17T06:52:55.971Z,95754.09
2018-12-17T06:55:25.841Z,95758.52
2018-12-17T06:57:55.823Z,95765.14
2018-12-17T07:00:25.949Z,95771.56
2018-12-17T07:02:55.852Z,95775.89
2018-12-17T07:05:25.707Z,95774.98
2018-12-17T07:08:02.408Z,95781.52
2018-12-17T07:10:32.267Z,95777.86
2018-12-17T07:13:02.395Z,95785.30
2018-12-17T07:15:32.272Z,95791.88
2018-12-17T07:18:02.689Z,95797.39
2018-12-17T07:20:32.641Z,95799.73
2018-12-17T07:23:02.679Z,95801.23
2018-12-17T07:25:32.573Z,95809.86
2018-12-17T07:28:02.495Z,95815.23
2018-12-17T07:30:32.396Z,95822.13
2018-12-17T07:33:02.286Z,95824.77
2018-12-17T07:35:32.181Z,95831.16
2018-12-17T07:38:02.909Z,95827.83
2018-12-17T07:40:32.825Z,95841.45
2018-12-17T07:43:02.707Z,95843.50
2018-12-17T07:45:32.569Z,95849.95
2018-12-17T07:48:02.465Z,95859.93
2018-12-17T07:50:32.310Z,95858.19
2018-12-17T07:53:02.221Z,95870.36
2018-12-17T07:55:32.197Z,95872.31
2018-12-17T07:58:02.085Z,95876.98
2018-12-17T08:00:31.982Z,95873.21
2018-12-17T08:03:01.833Z,95881.67
2018-12-17T08:05:31.712Z,95888.07
2018-12-17T08:08:01.612Z,95896.38
2018-12-17T08:10:31.778Z,95891.55
2018-12-17T08:13:01.996Z,95900.23
2018-12-17T08:15:32.829Z,95909.44
2018-12-17T08:18:33.883Z,95910.92
2018-12-17T08:21:05.680Z,95904.78
2018-12-17T08:23:35.522Z,95906.59
2018-12-17T08:26:06.046Z,95907.91
2018-12-17T08:28:35.933Z,95915.73
2018-12-17T08:31:05.905Z,95921.73
2018-12-17T08:33:35.820Z,95925.66
2018-12-17T08:36:05.721Z,95924.80
2018-12-17T08:38:35.620Z,95920.73
2018-12-17T08:41:05.482Z,95938.05
2018-12-17T08:43:35.394Z,95931.93
2018-12-17T08:46:05.289Z,95939.62
2018-12-17T08:48:35.208Z,95948.38
2018-12-17T08:51:05.197Z,95949.72
2018-12-17T08:53:35.423Z,95953.41
2018-12-17T08:56:05.297Z,95957.75
2018-12-17T08:58:35.164Z,95954.13
2018-12-17T09:01:05.162Z,95965.06
2018-12-17T09:03:41.795Z,95962.66
2018-12-17T09:06:11.789Z,95972.12
2018-12-17T09:08:41.674Z,95974.88
2018-12-17T09:11:11.597Z,95977.36
2018-12-17T09:13:41.506Z,95976.39
2018-12-17T09:16:11.410Z,95987.14
2018-12-17T09:18:41.303Z,95986.46
2018-12-17T09:21:11.455Z,95992.05
2018-12-17T09:23:41.321Z,95987.55
2018-12-17T09:26:11.241Z,95991.59
2018-12-17T09:28:41.156Z,95980.43
2018-12-17T09:31:11.087Z,95983.49
2018-12-17T09:33:40.998Z,95990.01
2018-12-17T09:36:11.586Z,95988.14
2018-12-17T09:38:41.867Z,95990.40
2018-12-17T09:41:11.814Z,95986.77
2018-12-17T09:43:41.761Z,95985.34
2018-12-17T09:46:11.699Z,95980.41
2018-12-17T09:48:41.632Z,95981.82
2018-12-17T09:51:11.505Z,95978.81
2018-12-17T09:53:41.401Z,95977.80
2018-12-17T09:56:11.316Z,95976.66
2018-12-17T09:58:41.238Z,95976.72
2018-12-17T10:01:11.106Z,95974.96
2018-12-17T10:03:41.842Z,95980.82
2018-12-17T10:06:11.961Z,95984.23
2018-12-17T10:08:41.853Z,95976.18
2018-12-17T10:11:11.848Z,95983.80
2018-12-17T10:13:42.092Z,95981.30
2018-12-17T10:16:11.961Z,95984.20
2018-12-17T10:18:41.869Z,95982.82
2018-12-17T10:21:11.921Z,95977.84
2018-12-17T10:23:41.876Z,95984.75
2018-12-17T10:26:12.157Z,95978.38
2018-12-17T10:28:42.076Z,95981.02
2018-12-17T10:31:12.428Z,95969.48
2018-12-17T10:33:42.403Z,95975.55
2018-12-17T10:36:12.395Z,95977.83
2018-12-17T10:38:42.417Z,95975.92
2018-12-17T10:41:12.385Z,95981.19
2018-12-17T10:43:42.322Z,95976.20
2018-12-17T10:46:12.330Z,95989.11
2018-12-17T10:48:42.788Z,95988.56
2018-12-17T10:51:12.620Z,95997.61
2018-12-17T10:53:42.550Z,95995.00
2018-12-17T10:56:12.495Z,95996.31
2018-12-17T10:58:42.472Z,95994.50
2018-12-17T11:01:17.804Z,95997.02
2018-12-17T11:03:55.690Z,95999.24
2018-12-17T11:06:25.891Z,96002.75
2018-12-17T11:08:56.732Z,95995.03
2018-12-17T11:11:26.630Z,96002.81
2018-12-17T11:13:57.698Z,96002.45
2018-12-17T11:16:28.112Z,95992.18
2018-12-17T11:18:58.531Z,96000.37
2018-12-17T11:21:28.571Z,96000.48
2018-12-17T11:23:58.511Z,95996.66
2018-12-17T11:26:28.500Z,96004.05
2018-12-17T11:28:58.782Z,95997.63
2018-12-17T11:31:29.310Z,96007.48
2018-12-17T11:33:59.216Z,96007.36
2018-12-17T11:36:29.413Z,96006.17
2018-12-17T11:39:01.873Z,96012.15
2018-12-17T11:41:31.729Z,96008.75
2018-12-17T11:44:01.771Z,96011.86
2018-12-17T11:46:31.685Z,96015.98
2018-12-17T11:49:01.579Z,96012.22
2018-12-17T11:51:31.519Z,96008.81
2018-12-17T11:54:01.394Z,96020.09
2018-12-17T11:56:46.888Z,96017.14
2018-12-17T11:59:16.748Z,96009.47
2018-12-17T12:01:46.741Z,96010.38
2018-12-17T12:04:17.594Z,96010.79
2018-12-17T12:06:47.428Z,96013.87
2018-12-17T12:09:21.531Z,96014.31
2018-12-17T12:11:51.464Z,96019.82
2018-12-17T12:14:21.739Z,96023.70
2018-12-17T12:16:51.982Z,96023.70
2018-12-17T12:19:21.890Z,96026.74
2018-12-17T12:21:51.800Z,96024.13
2018-12-17T12:24:21.717Z,96023.72
2018-12-17T12:26:51.725Z,96028.54
2018-12-17T12:29:21.943Z,96029.05
2018-12-17T12:31:52.729Z,96024.75
2018-12-17T12:34:23.042Z,96031.08
2018-12-17T12:36:52.911Z,96038.89
2018-12-17T12:39:22.826Z,96043.67
2018-12-17T12:41:52.725Z,96041.55
2018-12-17T12:44:22.688Z,96034.69
2018-12-17T12:46:52.616Z,96039.47
2018-12-17T12:49:22.738Z,96040.34
2018-12-17T12:51:52.806Z,96036.03
2018-12-17T12:54:23.390Z,96035.63
2018-12-17T12:56:53.295Z,96032.66
2018-12-17T12:59:23.313Z,96048.20
2018-12-17T13:01:53.397Z,96051.64
2018-12-17T13:04:23.355Z,96058.98
2018-12-17T13:06:54.642Z,96060.75
2018-12-17T13:09:24.522Z,96063.28
2018-12-17T13:11:54.609Z,96065.45
2018-12-17T13:14:24.880Z,96068.09
2018-12-17T13:16:55.237Z,96076.73
2018-12-17T13:19:25.169Z,96074.14
2018-12-17T13:21:55.127Z,96070.73
2018-12-17T13:24:26.017Z,96075.89
2018-12-17T13:26:56.171Z,96071.94
2018-12-17T13:29:26.106Z,96075.39
2018-12-17T13:31:55.989Z,96071.51
2018-12-17T13:34:25.914Z,96075.33
2018-12-17T13:36:55.893Z,96078.77
2018-12-17T13:39:25.880Z,96084.37
2018-12-17T13:41:55.918Z,96082.23
2018-12-17T13:44:26.911Z,96086.52
2018-12-17T13:46:57.252Z,96086.95
2018-12-17T13:49:27.266Z,96086.52
2018-12-17T13:52:02.578Z,96090.39
2018-12-17T13:54:32.662Z,96090.84
2018-12-17T13:57:02.656Z,96092.98
2018-12-17T13:59:32.503Z,96098.98
2018-12-17T14:02:02.495Z,96102.85
2018-12-17T14:04:32.455Z,96113.63
2018-12-17T14:07:02.776Z,96114.47
2018-12-17T14:09:34.754Z,96114.92
2018-12-17T14:12:04.652Z,96120.08
2018-12-17T14:14:34.575Z,96129.09
2018-12-17T14:17:09.912Z,96127.80
2018-12-17T14:19:41.767Z,96137.27
2018-12-17T14:22:11.708Z,96143.30
2018-12-17T14:24:41.921Z,96146.70
2018-12-17T14:27:11.899Z,96143.27
2018-12-17T14:29:41.794Z,96133.80
2018-12-17T14:32:12.390Z,96144.98
2018-12-17T14:34:42.461Z,96149.66
2018-12-17T14:37:12.848Z,96161.72
2018-12-17T14:39:42.693Z,96154.83
2018-12-17T14:42:12.540Z,96167.23
2018-12-17T14:44:42.407Z,96172.39
2018-12-17T14:47:12.941Z,96171.06
2018-12-17T14:49:42.768Z,96175.33
2018-12-17T14:52:12.694Z,96170.52
2018-12-17T14:54:43.011Z,96183.00
2018-12-17T14:57:13.515Z,96188.55
2018-12-17T14:59:43.455Z,96191.52
2018-12-17T15:02:13.831Z,96191.03
2018-12-17T15:04:43.739Z,96192.70
2018-12-17T15:07:13.727Z,96197.34
2018-12-17T15:09:43.571Z,96201.56
2018-12-17T15:12:13.555Z,96202.73
2018-12-17T15:14:44.082Z,96208.23
2018-12-17T15:17:14.240Z,96212.41
2018-12-17T15:19:44.177Z,96223.06
2018-12-17T15:22:14.340Z,96223.02
2018-12-17T15:24:44.209Z,96228.11
2018-12-17T15:27:14.892Z,96230.61
2018-12-17T15:29:44.907Z,96236.17
2018-12-17T15:32:14.864Z,96240.81
2018-12-17T15:34:44.777Z,96237.79
2018-12-17T15:37:14.701Z,96239.92
2018-12-17T15:39:45.414Z,96240.77
2018-12-17T15:42:16.316Z,96243.38
2018-12-17T15:44:46.311Z,96248.53
2018-12-17T15:47:16.241Z,96248.17
2018-12-17T15:49:46.351Z,96249.02
2018-12-17T15:52:16.231Z,96253.39
2018-12-17T15:54:46.850Z,96258.95
2018-12-17T15:57:16.754Z,96261.53
2018-12-17T15:59:46.667Z,96264.55
2018-12-17T16:02:16.593Z,96267.53
2018-12-17T16:04:46.527Z,96270.55
2018-12-17T16:07:16.469Z,96271.83
2018-12-17T16:09:46.825Z,96266.28
2018-12-17T16:12:16.794Z,96269.73
2018-12-17T16:14:47.425Z,96272.31
2018-12-17T16:17:17.388Z,96269.81
2018-12-17T16:19:47.365Z,96272.43
2018-12-17T16:22:18.111Z,96275.85
2018-12-17T16:24:47.994Z,96279.68
2018-12-17T16:27:19.469Z,96286.56
2018-12-17T16:29:49.704Z,96295.55
2018-12-17T16:32:20.133Z,96287.81
2018-12-17T16:34:50.053Z,96295.95
2018-12-17T16:37:20.532Z,96289.55
2018-12-17T16:39:50.645Z,96301.58
2018-12-17T16:42:20.973Z,96299.81
2018-12-17T16:44:50.878Z,96305.00
2018-12-17T16:47:20.959Z,96311.00
2018-12-17T16:49:52.208Z,96316.60
2018-12-17T16:52:22.626Z,96321.31
2018-12-17T16:54:53.827Z,96322.23
2018-12-17T16:57:24.884Z,96323.97
2018-12-17T16:59:56.292Z,96326.10
2018-12-17T17:02:30.792Z,96330.89
2018-12-17T17:05:01.640Z,96329.68
2018-12-17T17:07:31.584Z,96335.31
2018-12-17T17:10:07.052Z,96338.78
2018-12-17T17:12:37.050Z,96339.70
2018-12-17T17:15:11.035Z,96345.30
2018-12-17T17:17:41.121Z,96339.34
2018-12-17T17:20:11.099Z,96350.98
2018-12-17T17:22:42.012Z,96358.27
2018-12-17T17:25:11.948Z,96355.73
2018-12-17T17:27:42.092Z,96348.80
2018-12-17T17:30:12.869Z,96352.27
2018-12-17T17:32:42.844Z,96359.11
2018-12-17T17:35:13.307Z,96354.88
2018-12-17T17:37:43.551Z,96358.75
2018-12-17T17:40:13.845Z,96352.30
2018-12-17T17:42:43.895Z,96354.03
2018-12-17T17:45:13.947Z,96367.77
2018-12-17T17:47:43.867Z,96366.05
2018-12-17T17:50:13.803Z,96378.53
2018-12-17T17:52:43.762Z,96374.30
2018-12-17T17:55:14.343Z,96383.80
2018-12-17T17:57:44.517Z,96378.31
2018-12-17T18:00:14.679Z,96381.70
2018-12-17T18:02:44.943Z,96383.44
2018-12-17T18:05:21.014Z,96395.84
2018-12-17T18:07:52.942Z,96401.86
2018-12-17T18:10:23.091Z,96408.70
2018-12-17T18:12:53.542Z,96413.86
2018-12-17T18:15:24.000Z,96419.37
2018-12-17T18:17:55.198Z,96425.34
2018-12-17T18:20:25.581Z,96430.98
2018-12-17T18:22:56.172Z,96434.85
2018-12-17T18:25:26.363Z,96445.56
2018-12-17T18:27:56.905Z,96441.21
2018-12-17T18:30:27.228Z,96444.19
2018-12-17T18:32:57.439Z,96455.34
2018-12-17T18:35:27.992Z,96450.64
2018-12-17T18:37:58.183Z,96455.40
2018-12-17T18:40:28.132Z,96457.56
2018-12-17T18:42:58.407Z,96466.59
2018-12-17T18:45:29.749Z,96463.57
2018-12-17T18:48:00.020Z,96470.02
2018-12-17T18:50:30.229Z,96479.89
2018-12-17T18:53:00.338Z,96481.22
2018-12-17T18:55:30.396Z,96484.20
2018-12-17T18:58:00.374Z,96488.47
2018-12-17T19:00:30.627Z,96484.11
2018-12-17T19:03:01.413Z,96483.18
2018-12-17T19:05:31.682Z,96484.52
2018-12-17T19:08:01.796Z,96487.05
2018-12-17T19:10:37.094Z,96496.16
2018-12-17T19:13:07.140Z,96498.33
2018-12-17T19:15:37.130Z,96495.63
2018-12-17T19:18:07.383Z,96501.63
2018-12-17T19:20:37.424Z,96506.78
2018-12-17T19:23:07.465Z,96511.08
2018-12-17T19:25:38.948Z,96509.44
2018-12-17T19:28:09.237Z,96511.58
2018-12-17T19:30:40.138Z,96512.83
2018-12-17T19:33:10.193Z,96519.66
2018-12-17T19:35:41.196Z,96521.89
2018-12-17T19:38:11.376Z,96524.92
2018-12-17T19:40:41.483Z,96525.31
2018-12-17T19:43:12.013Z,96527.05
2018-12-17T19:45:42.044Z,96524.42
2018-12-17T19:48:12.156Z,96524.47
2018-12-17T19:50:42.106Z,96522.73
2018-12-17T19:53:13.082Z,96523.58
2018-12-17T19:55:43.178Z,96529.22
2018-12-17T19:58:14.093Z,96533.94
2018-12-17T20:00:45.190Z,96541.67
2018-12-17T20:03:16.279Z,96538.70
2018-12-17T20:05:46.994Z,96542.16
2018-12-17T20:08:17.130Z,96546.03
2018-12-17T20:10:47.440Z,96540.08
2018-12-17T20:13:17.870Z,96536.97
2018-12-17T20:15:48.044Z,96538.69
2018-12-17T20:18:18.156Z,96539.00
2018-12-17T20:20:48.400Z,96542.02
2018-12-17T20:23:18.770Z,96539.75
2018-12-17T20:25:48.784Z,96538.80
2018-12-17T20:28:18.904Z,96534.94
2018-12-17T20:30:49.530Z,96540.87
2018-12-17T20:33:20.006Z,96543.41
2018-12-17T20:35:50.770Z,96551.03
2018-12-17T20:38:21.481Z,96549.75
2018-12-17T20:40:51.677Z,96552.56
2018-12-17T20:43:22.019Z,96554.34
2018-12-17T20:45:52.375Z,96568.77
2018-12-17T20:48:23.324Z,96566.29
2018-12-17T20:50:53.842Z,96575.25
2018-12-17T20:53:25.885Z,96579.22
2018-12-17T20:55:56.896Z,96573.53
2018-12-17T20:58:27.050Z,96579.62
2018-12-17T21:00:57.190Z,96574.81
2018-12-17T21:03:27.341Z,96580.41
2018-12-17T21:05:59.319Z,96577.61
2018-12-17T21:08:30.134Z,96584.39
2018-12-17T21:11:00.257Z,96586.06
2018-12-17T21:13:30.319Z,96592.96
2018-12-17T21:16:00.539Z,96590.05
2018-12-17T21:18:30.959Z,96586.63
2018-12-17T21:21:01.003Z,96589.27
2018-12-17T21:23:31.427Z,96582.70
2018-12-17T21:26:01.906Z,96588.25
2018-12-17T21:28:32.030Z,96588.81
2018-12-17T21:31:02.742Z,96594.02
2018-12-17T21:33:32.787Z,96592.68
2018-12-17T21:36:03.317Z,96596.25
2018-12-17T21:38:34.144Z,96601.12
2018-12-17T21:41:04.456Z,96601.03
2018-12-17T21:43:36.104Z,96602.06
2018-12-17T21:46:06.306Z,96609.70
2018-12-17T21:48:36.714Z,96606.72
2018-12-17T21:51:06.662Z,96605.54
2018-12-17T21:53:37.170Z,96613.62
2018-12-17T21:56:07.067Z,96611.83
2018-12-17T21:58:37.094Z,96611.92
2018-12-17T22:01:07.253Z,96611.33
2018-12-17T22:03:37.319Z,96607.55
2018-12-17T22:06:07.321Z,96605.72
2018-12-17T22:08:37.325Z,96604.70
2018-12-17T22:11:07.223Z,96609.93
2018-12-17T22:13:37.751Z,96605.95
2018-12-17T22:16:07.646Z,96612.32
2018-12-17T22:18:37.650Z,96611.42
2018-12-17T22:21:07.531Z,96610.41
2018-12-17T22:23:38.602Z,96615.91
2018-12-17T22:26:08.545Z,96615.32
2018-12-17T22:28:38.602Z,96615.64
2018-12-17T22:31:08.628Z,96616.31
2018-12-17T22:33:38.739Z,96617.97
2018-12-17T22:36:09.628Z,96619.34
2018-12-17T22:38:39.732Z,96615.72
2018-12-17T22:41:09.724Z,96619.14
2018-12-17T22:43:39.764Z,96621.38
2018-12-17T22:46:09.763Z,96619.64
2018-12-17T22:48:39.921Z,96620.50
2018-12-17T22:51:09.842Z,96617.86
2018-12-17T22:53:39.793Z,96615.34
2018-12-17T22:56:09.675Z,96607.23
2018-12-17T22:58:42.452Z,96611.59
2018-12-17T23:01:11.732Z,96613.41
2018-12-17T23:03:41.639Z,96610.84
2018-12-17T23:06:11.494Z,96609.28
2018-12-17T23:09:15.666Z,96608.17
2018-12-17T23:12:02.133Z,96600.91
2018-12-17T23:14:43.314Z,96600.50
2018-12-17T23:17:24.426Z,96596.70
2018-12-17T23:19:54.431Z,96596.20
2018-12-17T23:22:24.330Z,96593.74
2018-12-17T23:24:54.192Z,96607.84
2018-12-17T23:27:24.695Z,96600.63
2018-12-17T23:29:54.649Z,96604.94
2018-12-17T23:32:28.261Z,96608.52
2018-12-17T23:34:58.133Z,96603.03
2018-12-17T23:37:28.169Z,96605.17
2018-12-17T23:39:58.605Z,96600.41
2018-12-17T23:42:29.259Z,96602.14
2018-12-17T23:44:59.551Z,96609.87
2018-12-17T23:47:29.625Z,96609.09
2018-12-17T23:49:59.455Z,96605.33
2018-12-17T23:52:30.366Z,96596.37
2018-12-17T23:55:00.730Z,96602.91
2018-12-17T23:57:30.757Z,96592.66
